Renton, WA (98058)

9:07 AM PST on February 14, 2016 (GMT -0800)
Carriage Lane | | Change Station
CLOSE
Current Station
Personal Weather Station
Location: Renton, WA
Elevation: 499 ft
Nearby Weather Stations

Elev 499 ft 47.44 °N, 122.15 °W | Updated 12 minutes ago

Rain
Rain
47.5 °F
Feels Like 48 °F
N
2.7
Wind Variable Wind from South

Today
High -- | Low -- °F
--% Chance of Precip.
Yesterday
High -- | Low -- °F
Precip. -- in
Pressure 30.14 in
Visibility 1.5 miles
Clouds Few 600 ft
Overcast 2200 ft
Windchill 48 °F
Dew Point 46 °F
Humidity 96%
Rainfall in
Snow Depth Not available.
7:16 AM 5:30 PM
Waxing Crescent, 43% visible
SPECI KRNT 141656Z 16005KT 1 1/2SM -RA BR FEW006 OVC022 11/09 A3014 RMK AO2 P0000 T01060094
Pressure 30.14 in
Visibility 1.5 miles
Clouds Few 600 ft
Overcast 2200 ft
Windchill 48 °F
Dew Point 46 °F
Humidity 96%
Rainfall in
Snow Depth Not available.
7:16 AM 5:30 PM
Waxing Crescent, 43% visible
SPECI KRNT 141656Z 16005KT 1 1/2SM -RA BR FEW006 OVC022 11/09 A3014 RMK AO2 P0000 T01060094

10-Day Weather Forecast

Almanac

Astronomy

Feb. 14, 2016 Rise Set
Actual Time
Civil Twilight
Nautical Twilight
Astronomical Twilight
Moon
Length of Visible Light
Length of Day
Tomorrow will be .
, % of the Moon is Illuminated

Today's Extremes

State Highs State Lows

Community

WunderPhotos

Upload Photos

1,892,849 photos uploaded!

WunderBlog® & News

Nearby

Air Quality

  Air Quality AQ Index Pollutant
Not available.

Snow Depth

Station Depth Elevation

Earthquake Activity

City Distance Mag. Time & Date
Minimum magnitude displayed is 2.5.

Coastal Water Temperatures

Place Temperature

Stations

Nearby Weather Stations

Station Location Temp. Windchill Dew Point Humidity Wind Precip. Elev Updated Type
                   

Watches & Warnings

There are currently no watches in effect.